createdAt,value
2022-08-31T00:03:15.710Z,59.95
2022-08-31T00:07:18.531Z,59.40
2022-08-31T00:11:28.233Z,59.42
2022-08-31T00:15:30.467Z,59.49
2022-08-31T00:19:32.634Z,59.92
2022-08-31T00:23:34.798Z,59.94
2022-08-31T00:27:37.211Z,60.00
2022-08-31T00:31:39.617Z,60.67
2022-08-31T00:35:42.408Z,61.00
2022-08-31T00:39:44.563Z,60.75
2022-08-31T00:43:54.526Z,60.62
2022-08-31T00:47:56.751Z,60.38
2022-08-31T00:52:08.453Z,60.50
2022-08-31T00:56:11.404Z,60.94
2022-08-31T01:00:18.258Z,61.37
2022-08-31T01:04:20.974Z,61.73
2022-08-31T01:08:30.543Z,62.09
2022-08-31T01:12:33.305Z,62.39
2022-08-31T01:16:40.582Z,62.84
2022-08-31T01:21:03.827Z,62.95
2022-08-31T01:25:07.625Z,62.94
2022-08-31T01:29:09.677Z,62.88
2022-08-31T01:33:13.271Z,63.26
2022-08-31T01:37:15.712Z,63.47
2022-08-31T01:41:17.841Z,64.01
2022-08-31T01:45:20.059Z,64.32
2022-08-31T01:49:23.305Z,64.26
2022-08-31T01:53:25.419Z,64.48
2022-08-31T01:57:34.246Z,64.48
2022-08-31T02:01:57.108Z,64.76
2022-08-31T02:06:06.792Z,64.78
2022-08-31T02:10:09.115Z,65.20
2022-08-31T02:14:11.419Z,65.08
2022-08-31T02:18:13.492Z,65.50
2022-08-31T02:22:15.650Z,65.87
2022-08-31T02:26:19.066Z,65.86
2022-08-31T02:30:21.403Z,65.68
2022-08-31T02:34:26.597Z,65.80
2022-08-31T02:38:28.796Z,65.38
2022-08-31T02:42:49.209Z,65.94
2022-08-31T02:46:53.564Z,67.04
2022-08-31T02:51:27.808Z,67.19
2022-08-31T02:55:30.061Z,67.34
2022-08-31T02:59:32.126Z,67.58
2022-08-31T03:03:35.252Z,67.73
2022-08-31T03:07:38.125Z,67.67
2022-08-31T03:11:40.328Z,67.51
2022-08-31T03:15:42.867Z,67.82
2022-08-31T03:19:45.209Z,67.75
2022-08-31T03:23:47.558Z,67.47
2022-08-31T03:27:50.234Z,67.36
2022-08-31T03:31:52.437Z,67.03
2022-08-31T03:35:54.748Z,67.52
2022-08-31T03:39:57.207Z,67.80
2022-08-31T03:44:01.912Z,67.67
2022-08-31T03:48:11.394Z,68.04
2022-08-31T03:52:16.025Z,67.90
2022-08-31T03:56:22.072Z,68.00
2022-08-31T04:00:26.448Z,68.37
2022-08-31T04:04:35.413Z,68.34
2022-08-31T04:08:56.154Z,68.31
2022-08-31T04:13:20.351Z,68.18
2022-08-31T04:17:44.945Z,68.80
2022-08-31T04:22:08.293Z,68.78
2022-08-31T04:26:23.407Z,69.33
2022-08-31T04:30:25.652Z,69.02
2022-08-31T04:34:28.300Z,69.60
2022-08-31T04:38:31.202Z,70.40
2022-08-31T04:42:37.092Z,70.64
2022-08-31T04:46:39.987Z,70.84
2022-08-31T04:50:43.012Z,70.94
2022-08-31T04:54:45.409Z,71.75
2022-08-31T04:58:59.416Z,72.29
2022-08-31T05:03:03.432Z,72.41
2022-08-31T05:07:05.505Z,71.70
2022-08-31T05:11:13.290Z,71.86
2022-08-31T05:15:15.512Z,72.49
2022-08-31T05:19:18.483Z,72.72
2022-08-31T05:23:20.677Z,72.76
2022-08-31T05:27:22.982Z,73.13
2022-08-31T05:31:29.161Z,73.84
2022-08-31T05:35:34.405Z,73.83
2022-08-31T05:39:36.435Z,72.66
2022-08-31T05:43:39.741Z,72.44
2022-08-31T05:47:42.737Z,72.92
2022-08-31T05:51:44.867Z,74.02
2022-08-31T05:55:47.379Z,75.38
2022-08-31T05:59:50.323Z,75.73
2022-08-31T06:03:54.161Z,74.63
2022-08-31T06:07:56.389Z,73.32
2022-08-31T06:11:59.372Z,73.15
2022-08-31T06:16:02.396Z,72.33
2022-08-31T06:20:05.849Z,72.55
2022-08-31T06:24:10.207Z,71.12
2022-08-31T06:28:15.324Z,70.50
2022-08-31T06:32:19.051Z,70.35
2022-08-31T06:36:32.018Z,70.39
2022-08-31T06:40:44.001Z,70.26
2022-08-31T06:45:05.918Z,70.03
2022-08-31T06:49:16.444Z,69.49
2022-08-31T06:53:18.714Z,69.09
2022-08-31T06:57:39.275Z,68.56
2022-08-31T07:02:11.392Z,68.63
2022-08-31T07:06:20.152Z,68.39
2022-08-31T07:10:22.969Z,68.66
2022-08-31T07:14:27.541Z,69.45
2022-08-31T07:18:32.138Z,69.52
2022-08-31T07:22:34.213Z,69.96
2022-08-31T07:27:04.399Z,70.54
2022-08-31T07:31:44.629Z,69.51
2022-08-31T07:35:46.956Z,69.35
2022-08-31T07:40:21.664Z,68.86
2022-08-31T07:44:24.316Z,69.11
2022-08-31T07:48:27.258Z,68.80
2022-08-31T07:52:47.254Z,69.11
2022-08-31T07:57:08.085Z,70.39
2022-08-31T08:01:11.915Z,69.84
2022-08-31T08:05:27.321Z,70.07
2022-08-31T08:10:07.110Z,70.04
2022-08-31T08:14:47.679Z,69.09
2022-08-31T08:19:07.386Z,69.35
2022-08-31T08:23:13.911Z,68.99
2022-08-31T08:27:38.946Z,69.54
2022-08-31T08:32:00.666Z,69.51
2022-08-31T08:36:07.283Z,69.94
2022-08-31T08:40:28.751Z,69.94
2022-08-31T08:44:35.423Z,70.81
2022-08-31T08:48:41.124Z,71.37
2022-08-31T08:52:47.128Z,70.55
2022-08-31T08:56:49.670Z,70.48
2022-08-31T09:00:56.218Z,70.64
2022-08-31T09:05:24.990Z,70.30
2022-08-31T09:09:55.216Z,70.72
2022-08-31T09:14:09.998Z,70.36
2022-08-31T09:18:38.165Z,70.07
2022-08-31T09:22:52.395Z,70.45
2022-08-31T09:27:18.620Z,69.38
2022-08-31T09:31:39.797Z,67.86
2022-08-31T09:35:42.041Z,69.04
2022-08-31T09:39:47.651Z,69.82
2022-08-31T09:43:49.826Z,69.62
2022-08-31T09:47:58.281Z,70.05
2022-08-31T09:52:47.156Z,70.08
2022-08-31T09:56:55.777Z,70.22
2022-08-31T10:01:12.707Z,69.45
2022-08-31T10:05:40.355Z,69.11
2022-08-31T10:09:44.933Z,68.62
2022-08-31T10:14:03.509Z,68.45
2022-08-31T10:18:39.530Z,68.06
2022-08-31T10:22:47.055Z,67.99
2022-08-31T10:27:03.363Z,65.86
2022-08-31T10:31:13.632Z,65.83
2022-08-31T10:35:20.495Z,64.72
2022-08-31T10:39:31.533Z,64.31
2022-08-31T10:43:48.993Z,63.20
2022-08-31T10:47:55.181Z,62.48
2022-08-31T10:52:10.701Z,62.64
2022-08-31T10:56:35.494Z,59.49
2022-08-31T11:01:05.130Z,58.02
2022-08-31T11:05:30.104Z,58.78
2022-08-31T11:09:54.915Z,58.16
2022-08-31T11:14:07.989Z,57.78
2022-08-31T11:18:51.895Z,57.70
2022-08-31T11:23:21.144Z,56.41
2022-08-31T11:27:28.263Z,55.68
2022-08-31T11:31:33.806Z,54.76
2022-08-31T11:36:02.712Z,53.07
2022-08-31T11:40:11.682Z,52.02
2022-08-31T11:44:34.198Z,52.13
2022-08-31T11:48:51.757Z,51.85
2022-08-31T11:52:56.739Z,51.98
2022-08-31T11:56:58.850Z,51.37
2022-08-31T12:01:12.038Z,51.09
2022-08-31T12:05:57.776Z,50.69
2022-08-31T12:10:39.637Z,50.36
2022-08-31T12:14:51.120Z,49.18
2022-08-31T12:19:43.648Z,48.74
2022-08-31T12:24:18.880Z,47.59
2022-08-31T12:28:29.159Z,47.96
2022-08-31T12:32:36.237Z,47.16
2022-08-31T12:36:38.327Z,46.89
2022-08-31T12:40:46.728Z,47.36
2022-08-31T12:44:51.894Z,47.10
2022-08-31T12:49:28.871Z,46.58
2022-08-31T12:53:44.678Z,46.36
2022-08-31T12:57:55.885Z,45.75
2022-08-31T13:02:00.409Z,46.05
2022-08-31T13:06:09.294Z,45.71
2022-08-31T13:10:15.041Z,44.59
2022-08-31T13:14:29.316Z,43.65
2022-08-31T13:18:31.517Z,44.07
2022-08-31T13:22:41.728Z,42.86
2022-08-31T13:26:45.453Z,44.01
2022-08-31T13:31:03.511Z,44.93
2022-08-31T13:35:10.475Z,43.37
2022-08-31T13:39:16.955Z,44.47
2022-08-31T13:43:26.773Z,43.30
2022-08-31T13:47:31.993Z,43.42
2022-08-31T13:51:38.776Z,42.54
2022-08-31T13:55:43.560Z,41.20
2022-08-31T13:59:47.687Z,40.35
2022-08-31T14:03:58.909Z,40.85
2022-08-31T14:08:03.860Z,41.16
2022-08-31T14:12:06.157Z,42.64
2022-08-31T14:16:09.275Z,42.95
2022-08-31T14:20:26.249Z,42.42
2022-08-31T14:24:28.577Z,42.36
2022-08-31T14:28:41.286Z,41.70
2022-08-31T14:32:45.747Z,41.67
2022-08-31T14:36:52.912Z,41.61
2022-08-31T14:40:56.285Z,42.28
2022-08-31T14:45:03.893Z,41.88
2022-08-31T14:49:07.258Z,41.95
2022-08-31T14:53:10.288Z,40.98
2022-08-31T14:57:18.500Z,41.47
2022-08-31T15:01:22.814Z,41.62
2022-08-31T15:05:25.881Z,42.22
2022-08-31T15:09:27.963Z,43.06
2022-08-31T15:13:33.326Z,43.72
2022-08-31T15:17:36.075Z,44.16
2022-08-31T15:21:45.204Z,44.58
2022-08-31T15:25:48.186Z,44.96
2022-08-31T15:29:53.759Z,44.54
2022-08-31T15:33:59.827Z,43.79
2022-08-31T15:38:06.396Z,43.78
2022-08-31T15:42:11.156Z,43.15
2022-08-31T15:46:14.294Z,41.70
2022-08-31T15:50:19.455Z,41.56
2022-08-31T15:54:24.119Z,41.51
2022-08-31T15:58:31.787Z,41.62
2022-08-31T16:02:36.173Z,41.51
2022-08-31T16:06:38.560Z,42.14
2022-08-31T16:10:46.129Z,42.06
2022-08-31T16:14:51.462Z,41.59
2022-08-31T16:18:57.271Z,41.59
2022-08-31T16:23:00.705Z,41.20
2022-08-31T16:27:09.058Z,39.91
2022-08-31T16:31:12.640Z,40.81
2022-08-31T16:35:14.872Z,41.02
2022-08-31T16:39:18.240Z,41.74
2022-08-31T16:43:20.394Z,41.84
2022-08-31T16:47:22.529Z,42.17
2022-08-31T16:51:24.756Z,42.35
2022-08-31T16:55:26.977Z,42.86
2022-08-31T16:59:30.063Z,43.35
2022-08-31T17:03:32.215Z,43.74
2022-08-31T17:07:34.379Z,44.07
2022-08-31T17:11:45.813Z,44.66
2022-08-31T17:15:47.978Z,45.13
2022-08-31T17:19:52.148Z,45.62
2022-08-31T17:23:57.394Z,45.95
2022-08-31T17:28:05.556Z,46.68
2022-08-31T17:32:11.334Z,46.72
2022-08-31T17:36:20.065Z,46.95
2022-08-31T17:40:23.522Z,47.07
2022-08-31T17:44:30.855Z,47.23
2022-08-31T17:48:36.065Z,47.56
2022-08-31T17:52:38.225Z,47.44
2022-08-31T17:56:47.620Z,48.20
2022-08-31T18:00:50.467Z,48.55
2022-08-31T18:04:53.440Z,49.12
2022-08-31T18:08:57.610Z,49.38
2022-08-31T18:13:02.649Z,50.26
2022-08-31T18:17:08.671Z,50.64
2022-08-31T18:21:10.865Z,51.50
2022-08-31T18:25:13.175Z,51.76
2022-08-31T18:29:18.093Z,52.43
2022-08-31T18:33:21.929Z,52.84
2022-08-31T18:37:25.976Z,53.41
2022-08-31T18:41:47.694Z,53.64
2022-08-31T18:45:50.318Z,54.43
2022-08-31T18:49:54.128Z,54.64
2022-08-31T18:53:56.294Z,55.39
2022-08-31T18:57:58.460Z,55.85
2022-08-31T19:02:00.843Z,56.19
2022-08-31T19:06:04.167Z,56.62
2022-08-31T19:10:12.839Z,57.07
2022-08-31T19:14:17.601Z,57.83
2022-08-31T19:18:19.791Z,59.11
2022-08-31T19:22:22.012Z,59.12
2022-08-31T19:26:40.727Z,59.54
2022-08-31T19:30:48.743Z,60.01
2022-08-31T19:34:50.969Z,60.36
2022-08-31T19:38:53.955Z,60.73
2022-08-31T19:43:41.520Z,60.95
2022-08-31T19:47:27.128Z,61.71
2022-08-31T19:51:30.179Z,62.06
2022-08-31T19:55:32.526Z,62.40
2022-08-31T19:59:35.688Z,62.21
2022-08-31T20:03:40.869Z,62.41
2022-08-31T20:07:45.328Z,62.47
2022-08-31T20:11:48.818Z,63.08
2022-08-31T20:15:52.839Z,63.30
2022-08-31T20:19:57.866Z,63.82
2022-08-31T20:24:04.556Z,64.19
2022-08-31T20:28:07.470Z,64.10
2022-08-31T20:32:10.145Z,64.27
2022-08-31T20:36:21.345Z,64.95
2022-08-31T20:40:23.600Z,65.85
2022-08-31T20:44:29.760Z,66.85
2022-08-31T20:48:50.250Z,66.75
2022-08-31T20:52:52.411Z,67.13
2022-08-31T20:56:55.054Z,67.70
2022-08-31T21:00:57.375Z,68.24
2022-08-31T21:05:15.354Z,68.50
2022-08-31T21:09:22.724Z,68.96
2022-08-31T21:13:24.849Z,69.34
2022-08-31T21:17:26.875Z,69.47
2022-08-31T21:21:30.753Z,68.87
2022-08-31T21:25:33.186Z,69.18
2022-08-31T21:29:36.883Z,68.74
2022-08-31T21:33:40.883Z,68.94
2022-08-31T21:37:42.961Z,68.66
2022-08-31T21:41:46.208Z,69.04
2022-08-31T21:45:48.331Z,69.64
2022-08-31T21:49:57.108Z,69.99
2022-08-31T21:54:03.273Z,69.41
2022-08-31T21:58:05.370Z,70.45
2022-08-31T22:02:11.307Z,71.32
2022-08-31T22:06:26.707Z,71.69
2022-08-31T22:10:30.409Z,71.93
2022-08-31T22:14:36.055Z,72.14
2022-08-31T22:23:05.454Z,72.42
2022-08-31T22:27:11.813Z,73.98
2022-08-31T22:31:16.512Z,75.59
2022-08-31T22:35:18.605Z,75.57
2022-08-31T22:39:25.121Z,76.10
2022-08-31T22:43:27.179Z,76.84
2022-08-31T22:47:29.405Z,75.97
2022-08-31T22:51:32.351Z,76.01
2022-08-31T22:55:37.742Z,76.16
2022-08-31T22:59:39.788Z,75.45
2022-08-31T23:03:42.922Z,75.85
2022-08-31T23:07:44.975Z,76.56
2022-08-31T23:11:47.954Z,76.69
2022-08-31T23:15:50.049Z,78.18
2022-08-31T23:19:54.217Z,78.13
2022-08-31T23:23:57.189Z,78.68
2022-08-31T23:27:59.864Z,78.01
2022-08-31T23:32:02.844Z,76.19
2022-08-31T23:36:07.417Z,78.03
2022-08-31T23:40:10.203Z,80.23
2022-08-31T23:44:13.361Z,80.03
2022-08-31T23:48:15.878Z,80.51
2022-08-31T23:52:21.324Z,80.98
2022-08-31T23:56:36.024Z,82.01
